Farden, Minnesota
Current Conditions -  °F | °C
As of 2:35 AM on Friday 19 Dec 2014 (Local Time) from KY49 Reporting Station
Overcast Overcast  
Wind Chill: 10°   Ceiling: 3600
Heat Index: 18°   Visibility: 10mi
Dew Point: 14°   Wind: 6mph
Humidity: 84%   Direction: 160°SSE
Pressure: 30.18"   Gusts: NA
Location:  47.3012°N, 94.5426°W
Report Text: KY49 190835Z AUTO 16005KT 10SM OVC036 M08/M10 A3018 RMK AO2 T10781100
Loading
Personal Weather Stations






























Interactive Weather Map New forecast layout! Learn more

10-Day Weather Forecast

Advertisements
Track Severe Weather on mobile